createdAt,value
2019-04-09T00:00:12.516Z,11.18
2019-04-09T00:02:52.162Z,11.05
2019-04-09T00:05:18.919Z,11.22
2019-04-09T00:07:56.712Z,10.94
2019-04-09T00:10:12.418Z,10.47
2019-04-09T00:12:40.026Z,10.40
2019-04-09T00:15:05.878Z,10.37
2019-04-09T00:17:32.617Z,10.25
2019-04-09T00:19:59.669Z,10.20
2019-04-09T00:22:26.379Z,10.12
2019-04-09T00:24:53.269Z,9.93
2019-04-09T00:27:20.525Z,9.76
2019-04-09T00:29:46.392Z,9.68
2019-04-09T00:32:13.065Z,9.66
2019-04-09T00:34:40.193Z,9.81
2019-04-09T00:37:06.856Z,9.83
2019-04-09T00:39:33.270Z,10.05
2019-04-09T00:42:00.475Z,9.99
2019-04-09T00:44:26.733Z,10.08
2019-04-09T00:46:53.478Z,10.18
2019-04-09T00:49:21.220Z,10.28
2019-04-09T00:51:47.173Z,10.32
2019-04-09T00:54:14.699Z,10.38
2019-04-09T00:56:40.599Z,10.84
2019-04-09T00:59:07.688Z,10.39
2019-04-09T01:01:34.497Z,10.25
2019-04-09T01:04:01.300Z,10.39
2019-04-09T01:06:27.618Z,10.34
2019-04-09T01:08:54.364Z,10.24
2019-04-09T01:11:22.190Z,10.20
2019-04-09T01:13:48.978Z,10.25
2019-04-09T01:16:15.807Z,10.44
2019-04-09T01:18:43.614Z,10.37
2019-04-09T01:21:09.098Z,10.32
2019-04-09T01:23:35.842Z,10.27
2019-04-09T01:26:09.482Z,10.14
2019-04-09T01:28:44.873Z,10.28
2019-04-09T01:31:30.262Z,10.30
2019-04-09T01:34:08.118Z,10.27
2019-04-09T01:36:53.801Z,10.37
2019-04-09T01:39:26.366Z,10.40
2019-04-09T01:41:58.950Z,10.43
2019-04-09T01:44:30.019Z,10.31
2019-04-09T01:47:15.995Z,10.45
2019-04-09T01:49:54.631Z,9.92
2019-04-09T01:52:28.643Z,9.83
2019-04-09T01:55:15.345Z,9.94
2019-04-09T01:57:50.194Z,9.76
2019-04-09T02:00:28.979Z,9.60
2019-04-09T02:03:09.445Z,9.53
2019-04-09T02:05:56.237Z,9.33
2019-04-09T02:08:44.997Z,9.31
2019-04-09T02:11:22.134Z,9.33
2019-04-09T02:13:57.438Z,9.33
2019-04-09T02:16:30.862Z,9.45
2019-04-09T02:19:19.069Z,9.56
2019-04-09T02:22:06.095Z,9.69
2019-04-09T02:24:47.926Z,10.29
2019-04-09T02:27:40.040Z,9.79
2019-04-09T02:30:08.724Z,9.58
2019-04-09T02:33:00.559Z,9.55
2019-04-09T02:35:32.735Z,9.78
2019-04-09T02:38:21.469Z,9.66
2019-04-09T02:41:00.768Z,9.64
2019-04-09T02:43:46.409Z,9.82
2019-04-09T02:46:20.969Z,9.93
2019-04-09T02:48:55.105Z,9.75
2019-04-09T02:51:46.693Z,10.12
2019-04-09T02:54:23.406Z,9.93
2019-04-09T02:57:10.690Z,9.81
2019-04-09T02:59:54.871Z,9.88
2019-04-09T03:02:36.394Z,10.00
2019-04-09T03:05:11.876Z,9.99
2019-04-09T03:07:46.549Z,10.03
2019-04-09T03:10:33.988Z,10.01
2019-04-09T03:13:18.735Z,10.05
2019-04-09T03:15:52.279Z,10.01
2019-04-09T03:18:32.377Z,10.10
2019-04-09T03:21:06.265Z,9.96
2019-04-09T03:23:41.117Z,9.71
2019-04-09T03:26:22.000Z,9.85
2019-04-09T03:28:59.584Z,9.74
2019-04-09T03:31:32.485Z,9.74
2019-04-09T03:34:04.280Z,9.65
2019-04-09T03:36:48.741Z,9.49
2019-04-09T03:39:35.968Z,9.41
2019-04-09T03:42:12.269Z,9.69
2019-04-09T03:45:00.252Z,9.38
2019-04-09T03:47:38.659Z,9.28
2019-04-09T03:50:33.721Z,9.29
2019-04-09T03:53:09.585Z,9.37
2019-04-09T03:55:53.406Z,9.45
2019-04-09T03:58:25.762Z,9.56
2019-04-09T04:01:06.069Z,9.80
2019-04-09T04:03:40.560Z,9.84
2019-04-09T04:06:17.277Z,10.04
2019-04-09T04:09:02.878Z,10.08
2019-04-09T04:11:35.949Z,9.91
2019-04-09T04:14:22.599Z,9.78
2019-04-09T04:17:03.870Z,9.79
2019-04-09T04:19:39.704Z,10.38
2019-04-09T04:22:14.997Z,9.94
2019-04-09T04:25:01.592Z,9.93
2019-04-09T04:27:51.689Z,10.09
2019-04-09T04:30:32.634Z,10.01
2019-04-09T04:33:05.062Z,10.15
2019-04-09T04:35:38.515Z,10.64
2019-04-09T04:38:16.822Z,10.31
2019-04-09T04:40:53.805Z,10.09
2019-04-09T04:43:25.281Z,10.68
2019-04-09T04:46:02.719Z,10.19
2019-04-09T04:48:35.682Z,10.18
2019-04-09T04:51:08.440Z,10.76
2019-04-09T04:53:49.378Z,10.31
2019-04-09T04:56:41.726Z,10.28
2019-04-09T04:59:14.202Z,10.26
2019-04-09T05:01:46.782Z,10.25
2019-04-09T05:04:25.259Z,10.22
2019-04-09T05:06:59.829Z,10.24
2019-04-09T05:09:35.252Z,10.18
2019-04-09T05:12:23.644Z,10.15
2019-04-09T05:15:01.602Z,10.30
2019-04-09T05:17:38.478Z,10.37
2019-04-09T05:20:17.952Z,10.36
2019-04-09T05:23:07.725Z,10.31
2019-04-09T05:25:59.950Z,10.34
2019-04-09T05:28:52.691Z,10.37
2019-04-09T05:31:21.157Z,10.56
2019-04-09T05:34:03.149Z,10.43
2019-04-09T05:36:40.927Z,10.39
2019-04-09T05:39:17.723Z,11.12
2019-04-09T05:42:04.134Z,10.66
2019-04-09T05:44:45.345Z,10.51
2019-04-09T05:47:18.611Z,10.46
2019-04-09T05:49:50.347Z,10.45
2019-04-09T05:52:39.473Z,10.33
2019-04-09T05:55:17.710Z,10.70
2019-04-09T05:58:05.516Z,10.54
2019-04-09T06:00:42.082Z,10.55
2019-04-09T06:03:22.326Z,10.69
2019-04-09T06:06:00.926Z,10.75
2019-04-09T06:08:35.118Z,10.65
2019-04-09T06:11:01.785Z,10.75
2019-04-09T06:13:29.317Z,10.72
2019-04-09T06:15:55.365Z,10.86
2019-04-09T06:18:21.979Z,11.01
2019-04-09T06:20:48.695Z,10.93
2019-04-09T06:23:16.147Z,10.86
2019-04-09T06:25:42.147Z,10.98
2019-04-09T06:28:10.697Z,10.97
2019-04-09T06:30:35.823Z,10.84
2019-04-09T06:33:10.068Z,10.96
2019-04-09T06:35:41.658Z,11.12
2019-04-09T06:38:21.758Z,11.18
2019-04-09T06:40:59.169Z,11.92
2019-04-09T06:43:30.943Z,11.38
2019-04-09T06:46:08.673Z,11.17
2019-04-09T06:48:56.042Z,11.17
2019-04-09T06:51:36.786Z,11.20
2019-04-09T06:54:20.358Z,11.28
2019-04-09T06:57:07.436Z,10.85
2019-04-09T06:59:39.813Z,10.94
2019-04-09T07:02:11.746Z,10.79
2019-04-09T07:04:50.349Z,10.80
2019-04-09T07:07:24.805Z,10.76
2019-04-09T07:10:00.534Z,11.07
2019-04-09T07:12:40.870Z,11.44
2019-04-09T07:15:34.248Z,11.73
2019-04-09T07:18:11.849Z,11.92
2019-04-09T07:20:48.881Z,12.16
2019-04-09T07:23:21.786Z,12.28
2019-04-09T07:25:58.535Z,12.32
2019-04-09T07:28:31.702Z,12.89
2019-04-09T07:31:06.169Z,13.21
2019-04-09T07:33:47.601Z,13.41
2019-04-09T07:36:34.357Z,13.57
2019-04-09T07:39:08.321Z,13.49
2019-04-09T07:41:57.611Z,13.48
2019-04-09T07:44:45.972Z,13.38
2019-04-09T07:47:22.025Z,13.24
2019-04-09T07:49:55.620Z,13.30
2019-04-09T07:52:27.046Z,13.15
2019-04-09T07:55:00.371Z,13.86
2019-04-09T07:57:42.619Z,13.95
2019-04-09T08:00:20.507Z,13.93
2019-04-09T08:02:48.116Z,13.81
2019-04-09T08:05:33.530Z,14.54
2019-04-09T08:08:21.065Z,14.29
2019-04-09T08:11:09.131Z,14.20
2019-04-09T08:13:45.816Z,14.15
2019-04-09T08:16:17.802Z,14.35
2019-04-09T08:18:53.537Z,14.50
2019-04-09T08:21:40.493Z,14.23
2019-04-09T08:24:26.359Z,14.22
2019-04-09T08:26:59.523Z,14.17
2019-04-09T08:29:49.237Z,14.24
2019-04-09T08:32:32.014Z,14.23
2019-04-09T08:35:06.254Z,14.34
2019-04-09T08:37:44.364Z,14.79
2019-04-09T08:40:17.743Z,14.56
2019-04-09T08:43:01.750Z,14.72
2019-04-09T08:45:32.718Z,14.80
2019-04-09T08:48:11.790Z,15.28
2019-04-09T08:50:51.116Z,14.80
2019-04-09T08:53:30.222Z,15.55
2019-04-09T08:56:06.314Z,15.71
2019-04-09T08:58:35.537Z,15.50
2019-04-09T09:03:49.396Z,15.27
2019-04-09T09:06:17.610Z,15.37
2019-04-09T09:08:49.081Z,15.17
2019-04-09T09:11:39.129Z,15.02
2019-04-09T09:14:13.801Z,15.09
2019-04-09T09:16:54.281Z,15.03
2019-04-09T09:19:31.997Z,15.49
2019-04-09T09:22:20.980Z,15.73
2019-04-09T09:24:58.377Z,14.91
2019-04-09T09:27:41.886Z,14.55
2019-04-09T09:30:18.186Z,14.15
2019-04-09T09:32:57.756Z,14.98
2019-04-09T09:35:34.690Z,15.03
2019-04-09T09:38:13.631Z,15.31
2019-04-09T09:41:02.691Z,15.72
2019-04-09T09:43:39.400Z,15.99
2019-04-09T09:46:26.482Z,15.98
2019-04-09T09:49:01.007Z,15.11
2019-04-09T09:51:33.413Z,14.70
2019-04-09T09:54:06.922Z,14.48
2019-04-09T09:56:43.325Z,15.15
2019-04-09T09:59:28.340Z,15.09
2019-04-09T10:02:03.457Z,16.14
2019-04-09T10:04:38.954Z,15.51
2019-04-09T10:07:37.624Z,15.71
2019-04-09T10:10:05.311Z,15.92
2019-04-09T10:12:54.398Z,16.54
2019-04-09T10:15:25.321Z,15.64
2019-04-09T10:18:02.903Z,14.72
2019-04-09T10:20:37.939Z,15.17
2019-04-09T10:23:29.282Z,15.10
2019-04-09T10:26:07.140Z,14.38
2019-04-09T10:28:38.471Z,14.68
2019-04-09T10:31:24.624Z,14.09
2019-04-09T10:33:50.552Z,13.97
2019-04-09T10:36:37.859Z,13.94
2019-04-09T10:39:17.930Z,13.99
2019-04-09T10:41:56.310Z,13.76
2019-04-09T10:44:42.434Z,13.82
2019-04-09T10:47:30.951Z,14.66
2019-04-09T10:50:07.925Z,14.58
2019-04-09T10:52:54.218Z,14.73
2019-04-09T10:55:38.274Z,15.13
2019-04-09T10:58:22.516Z,15.35
2019-04-09T11:00:54.632Z,15.83
2019-04-09T11:03:35.733Z,16.07
2019-04-09T11:06:18.137Z,15.55
2019-04-09T11:08:55.586Z,16.26
2019-04-09T11:11:30.965Z,16.39
2019-04-09T11:14:19.388Z,16.63
2019-04-09T11:16:52.669Z,16.09
2019-04-09T11:19:29.415Z,16.16
2019-04-09T11:22:05.983Z,15.86
2019-04-09T11:24:50.260Z,16.41
2019-04-09T11:27:20.637Z,16.66
2019-04-09T11:29:55.477Z,16.65
2019-04-09T11:32:31.994Z,16.67
2019-04-09T11:35:10.338Z,16.56
2019-04-09T11:37:59.198Z,16.35
2019-04-09T11:40:34.874Z,16.28
2019-04-09T11:43:22.453Z,16.77
2019-04-09T11:46:04.459Z,16.81
2019-04-09T11:48:45.646Z,17.36
2019-04-09T11:51:15.213Z,17.48
2019-04-09T11:54:04.220Z,17.40
2019-04-09T11:56:56.068Z,17.49
2019-04-09T11:59:41.457Z,17.54
2019-04-09T12:02:14.990Z,17.65
2019-04-09T12:04:50.563Z,17.31
2019-04-09T12:07:24.730Z,17.38
2019-04-09T12:10:01.669Z,17.64
2019-04-09T12:12:33.800Z,18.16
2019-04-09T12:15:16.544Z,18.07
2019-04-09T12:17:48.986Z,17.40
2019-04-09T12:20:38.336Z,17.00
2019-04-09T12:23:09.985Z,17.60
2019-04-09T12:25:58.065Z,17.55
2019-04-09T12:28:35.649Z,17.66
2019-04-09T12:31:14.209Z,17.36
2019-04-09T12:33:49.504Z,17.27
2019-04-09T12:36:21.592Z,17.47
2019-04-09T12:39:09.861Z,16.80
2019-04-09T12:41:50.566Z,17.00
2019-04-09T12:44:33.934Z,17.00
2019-04-09T12:47:06.009Z,17.00
2019-04-09T12:49:58.285Z,16.69
2019-04-09T12:52:48.206Z,16.49
2019-04-09T12:55:37.279Z,17.18
2019-04-09T12:58:18.610Z,17.58
2019-04-09T13:00:54.882Z,16.61
2019-04-09T13:03:40.917Z,16.21
2019-04-09T13:06:29.627Z,16.38
2019-04-09T13:09:04.375Z,16.07
2019-04-09T13:11:43.943Z,15.99
2019-04-09T13:14:31.244Z,16.81
2019-04-09T13:17:02.853Z,16.14
2019-04-09T13:19:39.734Z,15.96
2019-04-09T13:22:19.497Z,15.72
2019-04-09T13:25:06.988Z,15.78
2019-04-09T13:27:44.907Z,15.85
2019-04-09T13:30:17.764Z,16.44
2019-04-09T13:32:54.013Z,15.71
2019-04-09T13:35:26.116Z,15.99
2019-04-09T13:38:15.934Z,15.86
2019-04-09T13:40:50.082Z,15.15
2019-04-09T13:43:25.824Z,15.74
2019-04-09T13:46:00.246Z,15.68
2019-04-09T13:48:41.418Z,15.77
2019-04-09T13:51:18.634Z,15.44
2019-04-09T13:53:45.365Z,15.77
2019-04-09T13:56:12.598Z,15.27
2019-04-09T13:58:39.359Z,15.58
2019-04-09T14:01:06.187Z,15.77
2019-04-09T14:03:41.858Z,15.50
2019-04-09T14:06:06.558Z,14.99
2019-04-09T14:08:33.231Z,14.81
2019-04-09T14:11:01.354Z,15.02
2019-04-09T14:13:27.734Z,14.57
2019-04-09T14:15:54.375Z,14.30
2019-04-09T14:18:20.375Z,14.15
2019-04-09T14:20:47.632Z,14.15
2019-04-09T14:23:13.854Z,14.47
2019-04-09T14:25:41.393Z,14.51
2019-04-09T14:28:07.872Z,14.63
2019-04-09T14:30:34.669Z,14.59
2019-04-09T14:33:07.096Z,14.89
2019-04-09T14:35:27.783Z,15.47
2019-04-09T14:37:55.414Z,15.17
2019-04-09T14:40:21.266Z,15.48
2019-04-09T14:42:48.030Z,15.43
2019-04-09T14:45:14.751Z,15.33
2019-04-09T14:47:43.803Z,14.74
2019-04-09T14:50:09.382Z,14.83
2019-04-09T14:52:35.142Z,14.50
2019-04-09T14:55:01.886Z,14.15
2019-04-09T14:57:29.115Z,14.55
2019-04-09T14:59:55.374Z,14.48
2019-04-09T15:02:22.234Z,14.41
2019-04-09T15:04:49.051Z,14.51
2019-04-09T15:07:15.996Z,14.09
2019-04-09T15:09:43.492Z,14.06
2019-04-09T15:12:09.400Z,13.99
2019-04-09T15:14:36.216Z,13.80
2019-04-09T15:17:04.058Z,13.78
2019-04-09T15:19:29.831Z,13.70
2019-04-09T15:22:00.286Z,13.82
2019-04-09T15:24:27.967Z,13.64
2019-04-09T15:26:54.682Z,13.59
2019-04-09T15:29:21.045Z,13.78
2019-04-09T15:31:47.318Z,13.74
2019-04-09T15:34:14.092Z,13.86
2019-04-09T15:36:40.863Z,13.14
2019-04-09T15:39:12.409Z,12.79
2019-04-09T15:41:39.138Z,12.85
2019-04-09T15:44:05.898Z,13.19
2019-04-09T15:46:32.641Z,13.23
2019-04-09T15:48:59.399Z,13.21
2019-04-09T15:51:26.854Z,13.62
2019-04-09T15:53:52.862Z,13.46
2019-04-09T15:56:19.603Z,13.32
2019-04-09T15:58:46.342Z,13.21
2019-04-09T16:01:13.649Z,13.12
2019-04-09T16:03:48.773Z,12.98
2019-04-09T16:06:07.432Z,12.89
2019-04-09T16:08:40.972Z,12.64
2019-04-09T16:11:06.814Z,12.82
2019-04-09T16:13:33.565Z,12.87
2019-04-09T16:16:00.850Z,13.03
2019-04-09T16:18:27.042Z,12.77
2019-04-09T16:20:54.786Z,12.63
2019-04-09T16:23:20.619Z,12.81
2019-04-09T16:25:47.302Z,12.72
2019-04-09T16:28:15.093Z,12.76
2019-04-09T16:30:41.974Z,12.62
2019-04-09T16:33:13.060Z,12.66
2019-04-09T16:35:34.252Z,12.55
2019-04-09T16:38:01.854Z,12.43
2019-04-09T16:40:28.688Z,12.67
2019-04-09T16:42:59.298Z,12.82
2019-04-09T16:45:25.375Z,13.13
2019-04-09T16:47:51.791Z,13.09
2019-04-09T16:50:18.969Z,13.20
2019-04-09T16:52:45.278Z,13.34
2019-04-09T16:55:13.696Z,13.50
2019-04-09T16:57:38.746Z,13.45
2019-04-09T17:00:07.450Z,13.44
2019-04-09T17:02:34.255Z,13.29
2019-04-09T17:05:00.192Z,13.59
2019-04-09T17:07:28.038Z,13.85
2019-04-09T17:09:54.007Z,13.66
2019-04-09T17:12:20.440Z,13.51
2019-04-09T17:14:48.010Z,13.46
2019-04-09T17:17:13.903Z,13.38
2019-04-09T17:19:41.584Z,13.57
2019-04-09T17:22:07.889Z,13.60
2019-04-09T17:24:34.953Z,13.50
2019-04-09T17:27:00.878Z,13.53
2019-04-09T17:29:28.805Z,13.28
2019-04-09T17:31:54.617Z,13.30
2019-04-09T17:34:27.637Z,13.40
2019-04-09T17:36:48.809Z,13.30
2019-04-09T17:39:14.930Z,13.41
2019-04-09T17:41:41.310Z,13.31
2019-04-09T17:44:08.751Z,13.38
2019-04-09T17:46:34.786Z,13.42
2019-04-09T17:49:01.545Z,13.55
2019-04-09T17:51:28.359Z,13.37
2019-04-09T17:53:55.316Z,13.45
2019-04-09T17:56:21.830Z,13.18
2019-04-09T17:58:49.266Z,13.18
2019-04-09T18:01:15.341Z,13.59
2019-04-09T18:03:42.080Z,13.26
2019-04-09T18:06:08.825Z,13.35
2019-04-09T18:08:35.582Z,13.15
2019-04-09T18:11:02.346Z,13.07
2019-04-09T18:13:29.697Z,13.04
2019-04-09T18:15:56.039Z,13.03
2019-04-09T18:18:23.226Z,12.97
2019-04-09T18:20:50.019Z,13.07
2019-04-09T18:23:16.067Z,13.08
2019-04-09T18:25:53.162Z,13.06
2019-04-09T18:28:09.928Z,13.08
2019-04-09T18:30:36.229Z,13.79
2019-04-09T18:33:03.549Z,13.30
2019-04-09T18:35:30.155Z,13.85
2019-04-09T18:37:56.762Z,13.48
2019-04-09T18:40:23.179Z,13.46
2019-04-09T18:42:50.518Z,13.17
2019-04-09T18:45:16.649Z,13.23
2019-04-09T18:47:44.215Z,13.31
2019-04-09T18:50:10.800Z,13.35
2019-04-09T18:52:36.850Z,13.17
2019-04-09T18:55:04.269Z,13.08
2019-04-09T18:57:30.921Z,13.02
2019-04-09T18:59:57.873Z,13.05
2019-04-09T19:02:24.933Z,13.06
2019-04-09T19:05:02.667Z,13.09
2019-04-09T19:07:17.907Z,13.06
2019-04-09T19:09:44.650Z,13.12
2019-04-09T19:12:12.103Z,13.18
2019-04-09T19:14:38.128Z,13.08
2019-04-09T19:17:04.846Z,13.28
2019-04-09T19:19:32.194Z,13.29
2019-04-09T19:21:59.017Z,13.27
2019-04-09T19:24:25.124Z,13.29
2019-04-09T19:26:52.716Z,13.23
2019-04-09T19:29:18.583Z,13.24
2019-04-09T19:31:45.389Z,13.21
2019-04-09T19:34:12.945Z,13.06
2019-04-09T19:36:38.840Z,13.22
2019-04-09T19:39:05.838Z,13.05
2019-04-09T19:41:32.558Z,12.96
2019-04-09T19:43:59.308Z,13.06
2019-04-09T19:46:26.878Z,13.05
2019-04-09T19:48:52.827Z,13.04
2019-04-09T19:51:19.580Z,12.97
2019-04-09T19:53:46.440Z,12.82
2019-04-09T19:56:13.163Z,12.82
2019-04-09T19:58:46.486Z,12.81
2019-04-09T20:01:06.481Z,12.88
2019-04-09T20:03:33.678Z,12.91
2019-04-09T20:05:59.934Z,12.94
2019-04-09T20:08:27.158Z,12.87
2019-04-09T20:10:53.392Z,13.35
2019-04-09T20:13:20.123Z,12.85
2019-04-09T20:15:46.877Z,12.71
2019-04-09T20:18:13.616Z,12.66
2019-04-09T20:20:41.034Z,12.64
2019-04-09T20:23:07.730Z,12.87
2019-04-09T20:25:33.926Z,12.94
2019-04-09T20:28:01.453Z,12.89
2019-04-09T20:30:27.956Z,12.92
2019-04-09T20:32:54.918Z,12.87
2019-04-09T20:35:21.015Z,13.25
2019-04-09T20:37:47.637Z,12.68
2019-04-09T20:40:17.387Z,12.93
2019-04-09T20:42:41.460Z,12.60
2019-04-09T20:45:08.744Z,12.52
2019-04-09T20:47:35.109Z,12.21
2019-04-09T20:50:01.515Z,12.10
2019-04-09T20:52:28.245Z,12.05
2019-04-09T20:54:58.125Z,12.08
2019-04-09T20:57:25.952Z,12.03
2019-04-09T21:00:09.317Z,12.06
2019-04-09T21:02:38.419Z,12.42
2019-04-09T21:05:05.596Z,12.32
2019-04-09T21:07:32.027Z,12.13
2019-04-09T21:09:59.860Z,12.14
2019-04-09T21:12:25.393Z,12.20
2019-04-09T21:14:53.479Z,12.17
2019-04-09T21:17:19.693Z,12.08
2019-04-09T21:19:46.260Z,12.04
2019-04-09T21:22:12.441Z,12.00
2019-04-09T21:24:39.575Z,12.10
2019-04-09T21:27:05.772Z,12.05
2019-04-09T21:29:32.972Z,12.14
2019-04-09T21:31:59.993Z,12.16
2019-04-09T21:34:26.430Z,12.17
2019-04-09T21:36:52.805Z,12.12
2019-04-09T21:39:19.544Z,12.00
2019-04-09T21:41:46.559Z,12.05
2019-04-09T21:44:12.998Z,12.01
2019-04-09T21:46:39.723Z,11.85
2019-04-09T21:49:07.394Z,11.90
2019-04-09T21:51:33.432Z,11.78
2019-04-09T21:54:02.838Z,11.76
2019-04-09T21:56:26.658Z,11.77
2019-04-09T21:58:53.382Z,11.70
2019-04-09T22:01:21.039Z,11.77
2019-04-09T22:03:46.849Z,11.76
2019-04-09T22:06:23.352Z,11.77
2019-04-09T22:08:40.486Z,11.68
2019-04-09T22:11:07.206Z,11.67
2019-04-09T22:13:33.945Z,12.26
2019-04-09T22:16:01.799Z,12.57
2019-04-09T22:18:28.370Z,12.58
2019-04-09T22:20:54.191Z,12.72
2019-04-09T22:23:20.890Z,12.22
2019-04-09T22:25:47.673Z,12.03
2019-04-09T22:28:14.364Z,12.13
2019-04-09T22:30:41.284Z,12.00
2019-04-09T22:33:11.762Z,11.92
2019-04-09T22:35:35.378Z,11.81
2019-04-09T22:38:01.713Z,11.81
2019-04-09T22:40:28.711Z,11.72
2019-04-09T22:42:55.833Z,11.68
2019-04-09T22:45:21.622Z,11.68
2019-04-09T22:47:49.254Z,11.71
2019-04-09T22:50:15.553Z,11.64
2019-04-09T22:52:41.801Z,11.64
2019-04-09T22:55:09.764Z,11.65
2019-04-09T22:57:35.955Z,11.87
2019-04-09T23:00:02.184Z,11.65
2019-04-09T23:02:40.862Z,11.55
2019-04-09T23:05:16.008Z,11.73
2019-04-09T23:07:48.406Z,11.56
2019-04-09T23:10:25.948Z,11.36
2019-04-09T23:12:54.171Z,11.43
2019-04-09T23:15:25.363Z,11.41
2019-04-09T23:17:52.465Z,11.40
2019-04-09T23:20:18.695Z,11.28
2019-04-09T23:22:44.942Z,11.35
2019-04-09T23:25:12.650Z,11.32
2019-04-09T23:27:38.815Z,11.38
2019-04-09T23:30:05.838Z,11.40
2019-04-09T23:32:32.026Z,11.43
2019-04-09T23:34:58.795Z,11.41
2019-04-09T23:37:25.785Z,11.43
2019-04-09T23:39:52.939Z,11.48
2019-04-09T23:42:19.033Z,11.50
2019-04-09T23:44:45.990Z,11.48
2019-04-09T23:47:13.117Z,11.38
2019-04-09T23:49:39.263Z,11.30
2019-04-09T23:52:06.052Z,11.46
2019-04-09T23:54:32.574Z,11.56
2019-04-09T23:57:00.103Z,11.50
2019-04-09T23:59:26.205Z,11.59
